sensor_id;sensor_type;location;lat;lon;timestamp;temperature;humidity
43143;DHT22;28750;59.842;17.584;2024-02-16T00:01:25;2.50;99.90
43143;DHT22;28750;59.842;17.584;2024-02-16T00:03:52;2.50;99.90
43143;DHT22;28750;59.842;17.584;2024-02-16T00:06:18;2.40;99.90
43143;DHT22;28750;59.842;17.584;2024-02-16T00:08:45;2.50;99.90
43143;DHT22;28750;59.842;17.584;2024-02-16T00:11:12;2.50;99.90
43143;DHT22;28750;59.842;17.584;2024-02-16T00:13:39;2.60;99.90
43143;DHT22;28750;59.842;17.584;2024-02-16T00:16:06;2.60;99.90
43143;DHT22;28750;59.842;17.584;2024-02-16T00:18:33;2.60;99.90
43143;DHT22;28750;59.842;17.584;2024-02-16T00:21:00;2.60;99.90
43143;DHT22;28750;59.842;17.584;2024-02-16T00:23:28;2.60;99.90
43143;DHT22;28750;59.842;17.584;2024-02-16T00:25:55;2.70;99.90
43143;DHT22;28750;59.842;17.584;2024-02-16T00:28:22;2.70;99.90
43143;DHT22;28750;59.842;17.584;2024-02-16T00:30:49;2.70;99.90
43143;DHT22;28750;59.842;17.584;2024-02-16T00:33:16;2.90;99.90
43143;DHT22;28750;59.842;17.584;2024-02-16T00:35:44;2.80;99.90
43143;DHT22;28750;59.842;17.584;2024-02-16T00:38:13;2.80;99.90
43143;DHT22;28750;59.842;17.584;2024-02-16T00:40:40;2.80;99.90
43143;DHT22;28750;59.842;17.584;2024-02-16T00:43:10;2.80;99.90
43143;DHT22;28750;59.842;17.584;2024-02-16T00:45:37;2.90;99.90
43143;DHT22;28750;59.842;17.584;2024-02-16T00:48:06;2.90;99.90
43143;DHT22;28750;59.842;17.584;2024-02-16T00:50:33;2.90;99.90
43143;DHT22;28750;59.842;17.584;2024-02-16T00:53:00;2.90;99.90
43143;DHT22;28750;59.842;17.584;2024-02-16T00:55:28;2.80;99.90
43143;DHT22;28750;59.842;17.584;2024-02-16T00:57:55;2.90;99.90
43143;DHT22;28750;59.842;17.584;2024-02-16T01:00:22;3.00;99.90
43143;DHT22;28750;59.842;17.584;2024-02-16T01:02:49;3.00;99.90
43143;DHT22;28750;59.842;17.584;2024-02-16T01:05:18;2.90;99.90
43143;DHT22;28750;59.842;17.584;2024-02-16T01:07:45;2.90;99.90
43143;DHT22;28750;59.842;17.584;2024-02-16T01:10:12;3.00;99.90
43143;DHT22;28750;59.842;17.584;2024-02-16T01:12:39;2.90;99.90
43143;DHT22;28750;59.842;17.584;2024-02-16T01:15:06;2.90;99.90
43143;DHT22;28750;59.842;17.584;2024-02-16T01:17:33;3.00;99.90
43143;DHT22;28750;59.842;17.584;2024-02-16T01:20:00;3.00;99.90
43143;DHT22;28750;59.842;17.584;2024-02-16T01:22:27;3.00;99.90
43143;DHT22;28750;59.842;17.584;2024-02-16T01:24:54;3.10;99.90
43143;DHT22;28750;59.842;17.584;2024-02-16T01:27:21;3.00;99.90
43143;DHT22;28750;59.842;17.584;2024-02-16T01:29:48;3.00;99.90
43143;DHT22;28750;59.842;17.584;2024-02-16T01:32:15;3.00;99.90
43143;DHT22;28750;59.842;17.584;2024-02-16T01:34:42;3.00;99.90
43143;DHT22;28750;59.842;17.584;2024-02-16T01:37:12;3.00;99.90
43143;DHT22;28750;59.842;17.584;2024-02-16T01:39:39;3.00;99.90
43143;DHT22;28750;59.842;17.584;2024-02-16T01:42:06;3.00;99.90
43143;DHT22;28750;59.842;17.584;2024-02-16T01:44:33;3.00;99.90
43143;DHT22;28750;59.842;17.584;2024-02-16T01:47:00;2.90;99.90
43143;DHT22;28750;59.842;17.584;2024-02-16T01:49:27;2.90;99.90
43143;DHT22;28750;59.842;17.584;2024-02-16T01:51:54;2.90;99.90
43143;DHT22;28750;59.842;17.584;2024-02-16T01:54:21;2.90;99.90
43143;DHT22;28750;59.842;17.584;2024-02-16T01:56:47;2.90;99.90
43143;DHT22;28750;59.842;17.584;2024-02-16T01:59:16;2.90;99.90
43143;DHT22;28750;59.842;17.584;2024-02-16T02:01:43;2.90;99.90
43143;DHT22;28750;59.842;17.584;2024-02-16T02:04:10;2.90;99.90
43143;DHT22;28750;59.842;17.584;2024-02-16T02:06:37;2.90;99.90
43143;DHT22;28750;59.842;17.584;2024-02-16T02:09:04;2.90;99.90
43143;DHT22;28750;59.842;17.584;2024-02-16T02:11:31;3.00;99.90
43143;DHT22;28750;59.842;17.584;2024-02-16T02:13:58;2.90;99.90
43143;DHT22;28750;59.842;17.584;2024-02-16T02:16:25;2.90;99.90
43143;DHT22;28750;59.842;17.584;2024-02-16T02:18:53;2.90;99.90
43143;DHT22;28750;59.842;17.584;2024-02-16T02:21:20;2.90;99.90
43143;DHT22;28750;59.842;17.584;2024-02-16T02:23:47;2.90;99.90
43143;DHT22;28750;59.842;17.584;2024-02-16T02:26:14;2.90;99.90
43143;DHT22;28750;59.842;17.584;2024-02-16T02:28:42;2.90;99.90
43143;DHT22;28750;59.842;17.584;2024-02-16T02:31:09;2.90;99.90
43143;DHT22;28750;59.842;17.584;2024-02-16T02:33:36;2.90;99.90
43143;DHT22;28750;59.842;17.584;2024-02-16T02:36:03;3.00;99.90
43143;DHT22;28750;59.842;17.584;2024-02-16T02:38:31;2.90;99.90
43143;DHT22;28750;59.842;17.584;2024-02-16T02:40:58;2.90;99.90
43143;DHT22;28750;59.842;17.584;2024-02-16T02:43:25;3.00;99.90
43143;DHT22;28750;59.842;17.584;2024-02-16T02:45:52;2.90;99.90
43143;DHT22;28750;59.842;17.584;2024-02-16T02:48:19;2.90;99.90
43143;DHT22;28750;59.842;17.584;2024-02-16T02:50:46;2.90;99.90
43143;DHT22;28750;59.842;17.584;2024-02-16T02:53:13;2.90;99.90
43143;DHT22;28750;59.842;17.584;2024-02-16T02:55:41;3.00;99.90
43143;DHT22;28750;59.842;17.584;2024-02-16T02:58:08;3.00;99.90
43143;DHT22;28750;59.842;17.584;2024-02-16T03:00:34;3.00;99.90
43143;DHT22;28750;59.842;17.584;2024-02-16T03:03:01;3.00;99.90
43143;DHT22;28750;59.842;17.584;2024-02-16T03:05:29;3.00;99.90
43143;DHT22;28750;59.842;17.584;2024-02-16T03:07:56;3.10;99.90
43143;DHT22;28750;59.842;17.584;2024-02-16T03:10:24;3.00;99.90
43143;DHT22;28750;59.842;17.584;2024-02-16T03:12:51;3.00;99.90
43143;DHT22;28750;59.842;17.584;2024-02-16T03:15:19;3.10;99.90
43143;DHT22;28750;59.842;17.584;2024-02-16T03:17:46;3.10;99.90
43143;DHT22;28750;59.842;17.584;2024-02-16T03:20:13;3.00;99.90
43143;DHT22;28750;59.842;17.584;2024-02-16T03:22:40;3.10;99.90
43143;DHT22;28750;59.842;17.584;2024-02-16T03:25:07;3.10;99.90
43143;DHT22;28750;59.842;17.584;2024-02-16T03:27:34;3.10;99.90
43143;DHT22;28750;59.842;17.584;2024-02-16T03:30:02;3.10;99.90
43143;DHT22;28750;59.842;17.584;2024-02-16T03:32:31;3.10;99.90
43143;DHT22;28750;59.842;17.584;2024-02-16T03:34:58;3.10;99.90
43143;DHT22;28750;59.842;17.584;2024-02-16T03:37:25;3.30;99.90
43143;DHT22;28750;59.842;17.584;2024-02-16T03:39:52;3.20;99.90
43143;DHT22;28750;59.842;17.584;2024-02-16T03:42:19;3.10;99.90
43143;DHT22;28750;59.842;17.584;2024-02-16T03:44:46;3.10;99.90
43143;DHT22;28750;59.842;17.584;2024-02-16T03:47:13;3.20;99.90
43143;DHT22;28750;59.842;17.584;2024-02-16T03:49:40;3.20;99.90
43143;DHT22;28750;59.842;17.584;2024-02-16T03:52:07;3.10;99.90
43143;DHT22;28750;59.842;17.584;2024-02-16T03:54:34;3.30;99.90
43143;DHT22;28750;59.842;17.584;2024-02-16T03:57:01;3.20;99.90
43143;DHT22;28750;59.842;17.584;2024-02-16T03:59:29;3.30;99.90
43143;DHT22;28750;59.842;17.584;2024-02-16T04:01:56;3.30;99.90
43143;DHT22;28750;59.842;17.584;2024-02-16T04:04:23;3.30;99.90
43143;DHT22;28750;59.842;17.584;2024-02-16T04:06:52;3.30;99.90
43143;DHT22;28750;59.842;17.584;2024-02-16T04:09:19;3.40;99.90
43143;DHT22;28750;59.842;17.584;2024-02-16T04:11:46;3.40;99.90
43143;DHT22;28750;59.842;17.584;2024-02-16T04:14:13;3.30;99.90
43143;DHT22;28750;59.842;17.584;2024-02-16T04:16:42;3.40;99.90
43143;DHT22;28750;59.842;17.584;2024-02-16T04:19:09;3.40;99.90
43143;DHT22;28750;59.842;17.584;2024-02-16T04:21:36;3.40;99.90
43143;DHT22;28750;59.842;17.584;2024-02-16T04:24:03;3.40;99.90
43143;DHT22;28750;59.842;17.584;2024-02-16T04:26:30;3.40;99.90
43143;DHT22;28750;59.842;17.584;2024-02-16T04:28:56;3.40;99.90
43143;DHT22;28750;59.842;17.584;2024-02-16T04:31:23;3.40;99.90
43143;DHT22;28750;59.842;17.584;2024-02-16T04:33:50;3.50;99.90
43143;DHT22;28750;59.842;17.584;2024-02-16T04:36:18;3.40;99.90
43143;DHT22;28750;59.842;17.584;2024-02-16T04:38:46;3.50;99.90
43143;DHT22;28750;59.842;17.584;2024-02-16T04:41:13;3.50;99.90
43143;DHT22;28750;59.842;17.584;2024-02-16T04:43:41;3.40;99.90
43143;DHT22;28750;59.842;17.584;2024-02-16T04:46:13;3.50;99.90
43143;DHT22;28750;59.842;17.584;2024-02-16T04:48:40;3.40;99.90
43143;DHT22;28750;59.842;17.584;2024-02-16T04:51:07;3.50;99.90
43143;DHT22;28750;59.842;17.584;2024-02-16T04:53:34;3.50;99.90
43143;DHT22;28750;59.842;17.584;2024-02-16T04:56:01;3.50;99.90
43143;DHT22;28750;59.842;17.584;2024-02-16T04:58:28;3.50;99.90
43143;DHT22;28750;59.842;17.584;2024-02-16T05:00:55;3.50;99.90
43143;DHT22;28750;59.842;17.584;2024-02-16T05:03:22;3.40;99.90
43143;DHT22;28750;59.842;17.584;2024-02-16T05:05:50;3.50;99.90
43143;DHT22;28750;59.842;17.584;2024-02-16T05:08:17;3.50;99.90
43143;DHT22;28750;59.842;17.584;2024-02-16T05:10:44;3.50;99.90
43143;DHT22;28750;59.842;17.584;2024-02-16T05:13:11;3.50;99.90
43143;DHT22;28750;59.842;17.584;2024-02-16T05:15:39;3.50;99.90
43143;DHT22;28750;59.842;17.584;2024-02-16T05:18:07;3.50;99.90
43143;DHT22;28750;59.842;17.584;2024-02-16T05:20:36;3.50;99.90
43143;DHT22;28750;59.842;17.584;2024-02-16T05:23:03;3.50;99.90
43143;DHT22;28750;59.842;17.584;2024-02-16T05:25:30;3.50;99.90
43143;DHT22;28750;59.842;17.584;2024-02-16T05:27:57;3.60;99.90
43143;DHT22;28750;59.842;17.584;2024-02-16T05:30:25;3.50;99.90
43143;DHT22;28750;59.842;17.584;2024-02-16T05:32:53;3.60;99.90
43143;DHT22;28750;59.842;17.584;2024-02-16T05:35:23;3.50;99.90
43143;DHT22;28750;59.842;17.584;2024-02-16T05:37:54;3.50;99.90
43143;DHT22;28750;59.842;17.584;2024-02-16T05:40:20;3.50;99.90
43143;DHT22;28750;59.842;17.584;2024-02-16T05:42:53;3.50;99.90
43143;DHT22;28750;59.842;17.584;2024-02-16T05:45:20;3.60;99.90
43143;DHT22;28750;59.842;17.584;2024-02-16T05:47:48;3.60;99.90
43143;DHT22;28750;59.842;17.584;2024-02-16T05:50:15;3.50;99.90
43143;DHT22;28750;59.842;17.584;2024-02-16T05:52:43;3.50;99.90
43143;DHT22;28750;59.842;17.584;2024-02-16T05:55:10;3.50;99.90
43143;DHT22;28750;59.842;17.584;2024-02-16T05:57:38;3.60;99.90
43143;DHT22;28750;59.842;17.584;2024-02-16T06:00:06;3.60;99.90
43143;DHT22;28750;59.842;17.584;2024-02-16T06:02:33;3.60;99.90
43143;DHT22;28750;59.842;17.584;2024-02-16T06:05:01;3.60;99.90
43143;DHT22;28750;59.842;17.584;2024-02-16T06:07:29;3.70;99.90
43143;DHT22;28750;59.842;17.584;2024-02-16T06:09:56;3.70;99.90
43143;DHT22;28750;59.842;17.584;2024-02-16T06:12:24;3.70;99.90
43143;DHT22;28750;59.842;17.584;2024-02-16T06:14:51;3.70;99.90
43143;DHT22;28750;59.842;17.584;2024-02-16T06:17:19;3.80;99.90
43143;DHT22;28750;59.842;17.584;2024-02-16T06:19:46;3.70;99.90
43143;DHT22;28750;59.842;17.584;2024-02-16T06:22:13;3.80;99.90
43143;DHT22;28750;59.842;17.584;2024-02-16T06:24:40;3.80;99.90
43143;DHT22;28750;59.842;17.584;2024-02-16T06:27:07;3.80;99.90
43143;DHT22;28750;59.842;17.584;2024-02-16T06:29:34;3.80;99.90
43143;DHT22;28750;59.842;17.584;2024-02-16T06:32:01;3.80;99.90
43143;DHT22;28750;59.842;17.584;2024-02-16T06:34:29;3.80;99.90
43143;DHT22;28750;59.842;17.584;2024-02-16T06:36:56;4.00;99.90
43143;DHT22;28750;59.842;17.584;2024-02-16T06:39:23;3.90;99.90
43143;DHT22;28750;59.842;17.584;2024-02-16T06:41:50;4.00;99.90
43143;DHT22;28750;59.842;17.584;2024-02-16T06:44:17;4.00;99.90
43143;DHT22;28750;59.842;17.584;2024-02-16T06:46:44;3.90;99.90
43143;DHT22;28750;59.842;17.584;2024-02-16T06:49:11;4.00;99.90
43143;DHT22;28750;59.842;17.584;2024-02-16T06:51:37;4.00;99.90
43143;DHT22;28750;59.842;17.584;2024-02-16T06:54:05;3.90;99.90
43143;DHT22;28750;59.842;17.584;2024-02-16T06:56:32;3.90;99.90
43143;DHT22;28750;59.842;17.584;2024-02-16T06:58:59;3.90;99.90
43143;DHT22;28750;59.842;17.584;2024-02-16T07:01:26;3.90;99.90
43143;DHT22;28750;59.842;17.584;2024-02-16T07:03:54;3.90;99.90
43143;DHT22;28750;59.842;17.584;2024-02-16T07:06:21;3.90;99.90
43143;DHT22;28750;59.842;17.584;2024-02-16T07:08:48;3.90;99.90
43143;DHT22;28750;59.842;17.584;2024-02-16T07:11:15;3.90;99.90
43143;DHT22;28750;59.842;17.584;2024-02-16T07:13:42;3.90;99.90
43143;DHT22;28750;59.842;17.584;2024-02-16T07:16:09;3.80;99.90
43143;DHT22;28750;59.842;17.584;2024-02-16T07:18:36;3.90;99.90
43143;DHT22;28750;59.842;17.584;2024-02-16T07:21:03;3.80;99.90
43143;DHT22;28750;59.842;17.584;2024-02-16T07:23:30;3.90;99.90
43143;DHT22;28750;59.842;17.584;2024-02-16T07:25:57;3.90;99.90
43143;DHT22;28750;59.842;17.584;2024-02-16T07:28:24;3.90;99.90
43143;DHT22;28750;59.842;17.584;2024-02-16T07:30:51;3.80;99.90
43143;DHT22;28750;59.842;17.584;2024-02-16T07:33:18;3.90;99.90
43143;DHT22;28750;59.842;17.584;2024-02-16T07:35:45;3.90;99.90
43143;DHT22;28750;59.842;17.584;2024-02-16T07:38:12;3.90;99.90
43143;DHT22;28750;59.842;17.584;2024-02-16T07:40:39;3.90;99.90
43143;DHT22;28750;59.842;17.584;2024-02-16T07:43:06;3.80;99.90
43143;DHT22;28750;59.842;17.584;2024-02-16T07:45:33;3.90;99.90
43143;DHT22;28750;59.842;17.584;2024-02-16T07:48:01;3.80;99.90
43143;DHT22;28750;59.842;17.584;2024-02-16T07:50:30;3.90;99.90
43143;DHT22;28750;59.842;17.584;2024-02-16T07:52:57;3.90;99.90
43143;DHT22;28750;59.842;17.584;2024-02-16T07:55:24;3.90;99.90
43143;DHT22;28750;59.842;17.584;2024-02-16T07:57:51;3.80;99.90
43143;DHT22;28750;59.842;17.584;2024-02-16T08:00:18;3.90;99.90
43143;DHT22;28750;59.842;17.584;2024-02-16T08:02:45;3.90;99.90
43143;DHT22;28750;59.842;17.584;2024-02-16T08:05:13;4.00;99.90
43143;DHT22;28750;59.842;17.584;2024-02-16T08:07:40;3.90;99.90
43143;DHT22;28750;59.842;17.584;2024-02-16T08:10:08;3.90;99.90
43143;DHT22;28750;59.842;17.584;2024-02-16T08:12:35;3.90;99.90
43143;DHT22;28750;59.842;17.584;2024-02-16T08:15:04;4.00;99.90
43143;DHT22;28750;59.842;17.584;2024-02-16T08:17:33;3.90;99.90
43143;DHT22;28750;59.842;17.584;2024-02-16T08:20:00;4.00;99.90
43143;DHT22;28750;59.842;17.584;2024-02-16T08:22:27;3.90;99.90
43143;DHT22;28750;59.842;17.584;2024-02-16T08:24:54;3.90;99.90
43143;DHT22;28750;59.842;17.584;2024-02-16T08:27:21;4.00;99.90
43143;DHT22;28750;59.842;17.584;2024-02-16T08:29:48;4.10;99.90
43143;DHT22;28750;59.842;17.584;2024-02-16T08:32:16;4.10;99.90
43143;DHT22;28750;59.842;17.584;2024-02-16T08:34:43;4.10;99.90
43143;DHT22;28750;59.842;17.584;2024-02-16T08:37:10;4.20;99.90
43143;DHT22;28750;59.842;17.584;2024-02-16T08:39:38;4.10;99.90
43143;DHT22;28750;59.842;17.584;2024-02-16T08:42:06;4.20;99.90
43143;DHT22;28750;59.842;17.584;2024-02-16T08:44:34;4.20;99.90
43143;DHT22;28750;59.842;17.584;2024-02-16T08:47:02;4.30;99.90
43143;DHT22;28750;59.842;17.584;2024-02-16T08:49:29;4.30;99.90
43143;DHT22;28750;59.842;17.584;2024-02-16T08:51:56;4.30;99.90
43143;DHT22;28750;59.842;17.584;2024-02-16T08:54:23;4.30;99.90
43143;DHT22;28750;59.842;17.584;2024-02-16T08:56:51;4.30;99.90
43143;DHT22;28750;59.842;17.584;2024-02-16T08:59:18;4.30;99.90
43143;DHT22;28750;59.842;17.584;2024-02-16T09:01:45;4.30;99.90
43143;DHT22;28750;59.842;17.584;2024-02-16T09:04:12;4.20;99.90
43143;DHT22;28750;59.842;17.584;2024-02-16T09:06:40;4.40;99.90
43143;DHT22;28750;59.842;17.584;2024-02-16T09:09:07;4.40;99.90
43143;DHT22;28750;59.842;17.584;2024-02-16T09:11:34;4.40;99.90
43143;DHT22;28750;59.842;17.584;2024-02-16T09:14:01;4.40;99.90
43143;DHT22;28750;59.842;17.584;2024-02-16T09:16:28;4.50;99.90
43143;DHT22;28750;59.842;17.584;2024-02-16T09:18:57;4.50;99.90
43143;DHT22;28750;59.842;17.584;2024-02-16T09:21:24;4.50;99.90
43143;DHT22;28750;59.842;17.584;2024-02-16T09:23:53;4.60;99.90
43143;DHT22;28750;59.842;17.584;2024-02-16T09:26:24;4.70;99.90
43143;DHT22;28750;59.842;17.584;2024-02-16T09:28:56;4.70;99.90
43143;DHT22;28750;59.842;17.584;2024-02-16T09:31:23;4.70;99.90
43143;DHT22;28750;59.842;17.584;2024-02-16T09:33:50;4.70;99.90
43143;DHT22;28750;59.842;17.584;2024-02-16T09:36:19;4.90;99.90
43143;DHT22;28750;59.842;17.584;2024-02-16T09:38:46;4.70;99.90
43143;DHT22;28750;59.842;17.584;2024-02-16T09:41:13;4.80;99.90
43143;DHT22;28750;59.842;17.584;2024-02-16T09:43:41;4.80;99.90
43143;DHT22;28750;59.842;17.584;2024-02-16T09:46:08;4.80;99.90
43143;DHT22;28750;59.842;17.584;2024-02-16T09:48:35;4.90;99.90
43143;DHT22;28750;59.842;17.584;2024-02-16T09:51:02;5.00;99.90
43143;DHT22;28750;59.842;17.584;2024-02-16T09:53:30;5.00;99.90
43143;DHT22;28750;59.842;17.584;2024-02-16T09:55:57;5.00;99.90
43143;DHT22;28750;59.842;17.584;2024-02-16T09:58:24;5.00;99.90
43143;DHT22;28750;59.842;17.584;2024-02-16T10:00:51;4.70;99.90
43143;DHT22;28750;59.842;17.584;2024-02-16T10:03:26;5.00;99.90
43143;DHT22;28750;59.842;17.584;2024-02-16T10:08:33;5.20;99.90
43143;DHT22;28750;59.842;17.584;2024-02-16T10:11:01;5.00;99.90
43143;DHT22;28750;59.842;17.584;2024-02-16T10:13:29;5.10;99.90
43143;DHT22;28750;59.842;17.584;2024-02-16T10:16:10;5.20;99.90
43143;DHT22;28750;59.842;17.584;2024-02-16T10:18:38;5.30;99.90
43143;DHT22;28750;59.842;17.584;2024-02-16T10:21:05;5.20;99.90
43143;DHT22;28750;59.842;17.584;2024-02-16T10:23:32;5.20;99.90
43143;DHT22;28750;59.842;17.584;2024-02-16T10:25:59;5.20;99.90
43143;DHT22;28750;59.842;17.584;2024-02-16T10:28:27;5.30;99.90
43143;DHT22;28750;59.842;17.584;2024-02-16T10:30:57;5.50;99.90
43143;DHT22;28750;59.842;17.584;2024-02-16T10:33:27;5.20;99.90
43143;DHT22;28750;59.842;17.584;2024-02-16T10:35:57;5.20;99.90
43143;DHT22;28750;59.842;17.584;2024-02-16T10:38:25;5.20;99.90
43143;DHT22;28750;59.842;17.584;2024-02-16T10:40:53;5.30;99.90
43143;DHT22;28750;59.842;17.584;2024-02-16T10:43:22;5.30;99.90
43143;DHT22;28750;59.842;17.584;2024-02-16T10:45:51;5.40;99.90
43143;DHT22;28750;59.842;17.584;2024-02-16T10:48:19;5.40;99.90
43143;DHT22;28750;59.842;17.584;2024-02-16T10:50:46;5.50;99.90
43143;DHT22;28750;59.842;17.584;2024-02-16T10:53:20;5.50;99.90
43143;DHT22;28750;59.842;17.584;2024-02-16T10:55:49;5.40;99.90
43143;DHT22;28750;59.842;17.584;2024-02-16T10:58:18;5.20;99.90
43143;DHT22;28750;59.842;17.584;2024-02-16T11:00:53;5.60;99.90
43143;DHT22;28750;59.842;17.584;2024-02-16T11:03:26;5.70;99.90
43143;DHT22;28750;59.842;17.584;2024-02-16T11:05:54;5.60;99.90
43143;DHT22;28750;59.842;17.584;2024-02-16T11:08:23;5.50;99.90
43143;DHT22;28750;59.842;17.584;2024-02-16T11:10:55;5.60;99.90
43143;DHT22;28750;59.842;17.584;2024-02-16T11:13:23;5.60;99.90
43143;DHT22;28750;59.842;17.584;2024-02-16T11:16:00;5.50;99.90
43143;DHT22;28750;59.842;17.584;2024-02-16T11:18:31;5.50;99.90
43143;DHT22;28750;59.842;17.584;2024-02-16T11:21:01;5.40;99.90
43143;DHT22;28750;59.842;17.584;2024-02-16T11:23:29;5.50;99.90
43143;DHT22;28750;59.842;17.584;2024-02-16T11:26:00;5.40;99.90
43143;DHT22;28750;59.842;17.584;2024-02-16T11:28:28;5.40;99.90
43143;DHT22;28750;59.842;17.584;2024-02-16T11:30:57;5.60;99.90
43143;DHT22;28750;59.842;17.584;2024-02-16T11:33:25;5.60;99.90
43143;DHT22;28750;59.842;17.584;2024-02-16T11:35:53;5.60;99.90
43143;DHT22;28750;59.842;17.584;2024-02-16T11:38:21;5.50;99.90
43143;DHT22;28750;59.842;17.584;2024-02-16T11:40:58;5.70;99.90
43143;DHT22;28750;59.842;17.584;2024-02-16T11:43:25;5.70;99.90
43143;DHT22;28750;59.842;17.584;2024-02-16T11:45:52;5.70;99.90
43143;DHT22;28750;59.842;17.584;2024-02-16T11:48:23;5.70;99.90
43143;DHT22;28750;59.842;17.584;2024-02-16T11:50:58;5.70;99.90
43143;DHT22;28750;59.842;17.584;2024-02-16T11:53:25;5.60;99.90
43143;DHT22;28750;59.842;17.584;2024-02-16T11:55:52;5.60;99.90
43143;DHT22;28750;59.842;17.584;2024-02-16T11:58:19;5.70;99.90
43143;DHT22;28750;59.842;17.584;2024-02-16T12:00:46;5.70;99.90
43143;DHT22;28750;59.842;17.584;2024-02-16T12:05:50;5.60;99.90
43143;DHT22;28750;59.842;17.584;2024-02-16T12:08:18;5.80;99.90
43143;DHT22;28750;59.842;17.584;2024-02-16T12:10:48;5.80;99.90
43143;DHT22;28750;59.842;17.584;2024-02-16T12:13:18;5.90;99.90
43143;DHT22;28750;59.842;17.584;2024-02-16T12:15:46;5.80;99.90
43143;DHT22;28750;59.842;17.584;2024-02-16T12:18:22;5.80;99.90
43143;DHT22;28750;59.842;17.584;2024-02-16T12:21:23;5.70;99.90
43143;DHT22;28750;59.842;17.584;2024-02-16T12:23:45;5.80;99.90
43143;DHT22;28750;59.842;17.584;2024-02-16T12:26:12;5.90;99.90
43143;DHT22;28750;59.842;17.584;2024-02-16T12:28:40;5.90;99.90
43143;DHT22;28750;59.842;17.584;2024-02-16T12:31:08;6.00;99.90
43143;DHT22;28750;59.842;17.584;2024-02-16T12:33:34;6.00;99.90
43143;DHT22;28750;59.842;17.584;2024-02-16T12:36:02;5.90;99.90
43143;DHT22;28750;59.842;17.584;2024-02-16T12:38:29;5.80;99.90
43143;DHT22;28750;59.842;17.584;2024-02-16T12:40:57;5.80;99.90
43143;DHT22;28750;59.842;17.584;2024-02-16T12:43:25;6.00;99.90
43143;DHT22;28750;59.842;17.584;2024-02-16T12:45:52;6.10;99.90
43143;DHT22;28750;59.842;17.584;2024-02-16T12:48:19;6.00;99.90
43143;DHT22;28750;59.842;17.584;2024-02-16T12:50:46;6.00;99.90
43143;DHT22;28750;59.842;17.584;2024-02-16T12:53:14;6.10;99.90
43143;DHT22;28750;59.842;17.584;2024-02-16T12:55:42;6.00;99.90
43143;DHT22;28750;59.842;17.584;2024-02-16T12:58:09;6.00;99.90
43143;DHT22;28750;59.842;17.584;2024-02-16T13:00:36;6.10;99.90
43143;DHT22;28750;59.842;17.584;2024-02-16T13:03:03;6.00;99.90
43143;DHT22;28750;59.842;17.584;2024-02-16T13:05:30;6.10;99.90
43143;DHT22;28750;59.842;17.584;2024-02-16T13:07:58;6.00;99.90
43143;DHT22;28750;59.842;17.584;2024-02-16T13:10:25;6.00;99.90
43143;DHT22;28750;59.842;17.584;2024-02-16T13:12:52;6.00;99.90
43143;DHT22;28750;59.842;17.584;2024-02-16T13:15:19;6.00;99.90
43143;DHT22;28750;59.842;17.584;2024-02-16T13:17:46;6.10;99.90
43143;DHT22;28750;59.842;17.584;2024-02-16T13:20:13;6.10;99.90
43143;DHT22;28750;59.842;17.584;2024-02-16T13:22:39;6.00;99.90
43143;DHT22;28750;59.842;17.584;2024-02-16T13:25:07;6.00;99.90
43143;DHT22;28750;59.842;17.584;2024-02-16T13:27:34;6.00;99.90
43143;DHT22;28750;59.842;17.584;2024-02-16T13:30:01;6.00;99.90
43143;DHT22;28750;59.842;17.584;2024-02-16T13:32:28;6.10;99.90
43143;DHT22;28750;59.842;17.584;2024-02-16T13:34:55;6.00;99.90
43143;DHT22;28750;59.842;17.584;2024-02-16T13:37:22;6.10;99.90
43143;DHT22;28750;59.842;17.584;2024-02-16T13:39:49;6.10;99.90
43143;DHT22;28750;59.842;17.584;2024-02-16T13:42:16;6.00;99.90
43143;DHT22;28750;59.842;17.584;2024-02-16T13:44:43;6.00;99.90
43143;DHT22;28750;59.842;17.584;2024-02-16T13:47:10;5.80;99.90
43143;DHT22;28750;59.842;17.584;2024-02-16T13:49:37;6.10;99.90
43143;DHT22;28750;59.842;17.584;2024-02-16T13:52:04;6.00;99.90
43143;DHT22;28750;59.842;17.584;2024-02-16T13:54:31;6.10;99.90
43143;DHT22;28750;59.842;17.584;2024-02-16T13:56:58;6.10;99.90
43143;DHT22;28750;59.842;17.584;2024-02-16T13:59:25;6.10;99.90
43143;DHT22;28750;59.842;17.584;2024-02-16T14:01:52;6.10;99.90
43143;DHT22;28750;59.842;17.584;2024-02-16T14:04:20;6.20;99.90
43143;DHT22;28750;59.842;17.584;2024-02-16T14:06:47;6.20;99.90
43143;DHT22;28750;59.842;17.584;2024-02-16T14:09:14;6.20;99.90
43143;DHT22;28750;59.842;17.584;2024-02-16T14:11:41;6.10;99.90
43143;DHT22;28750;59.842;17.584;2024-02-16T14:14:08;5.80;99.90
43143;DHT22;28750;59.842;17.584;2024-02-16T14:16:35;5.60;99.90
43143;DHT22;28750;59.842;17.584;2024-02-16T14:19:02;6.00;99.90
43143;DHT22;28750;59.842;17.584;2024-02-16T14:21:29;6.20;99.90
43143;DHT22;28750;59.842;17.584;2024-02-16T14:23:56;5.90;99.90
43143;DHT22;28750;59.842;17.584;2024-02-16T14:26:23;6.10;99.90
43143;DHT22;28750;59.842;17.584;2024-02-16T14:28:50;6.20;99.90
43143;DHT22;28750;59.842;17.584;2024-02-16T14:31:17;6.30;99.90
43143;DHT22;28750;59.842;17.584;2024-02-16T14:33:46;6.30;99.90
43143;DHT22;28750;59.842;17.584;2024-02-16T14:36:13;6.30;99.90
43143;DHT22;28750;59.842;17.584;2024-02-16T14:38:39;6.30;99.90
43143;DHT22;28750;59.842;17.584;2024-02-16T14:41:06;6.30;99.90
43143;DHT22;28750;59.842;17.584;2024-02-16T14:43:33;6.30;99.90
43143;DHT22;28750;59.842;17.584;2024-02-16T14:46:00;6.30;99.90
43143;DHT22;28750;59.842;17.584;2024-02-16T14:48:29;6.30;99.90
43143;DHT22;28750;59.842;17.584;2024-02-16T14:50:56;6.30;99.90
43143;DHT22;28750;59.842;17.584;2024-02-16T14:53:24;6.50;99.90
43143;DHT22;28750;59.842;17.584;2024-02-16T14:55:51;6.40;99.90
43143;DHT22;28750;59.842;17.584;2024-02-16T14:58:18;6.30;99.90
43143;DHT22;28750;59.842;17.584;2024-02-16T15:00:45;6.30;99.90
43143;DHT22;28750;59.842;17.584;2024-02-16T15:03:12;6.40;99.90
43143;DHT22;28750;59.842;17.584;2024-02-16T15:05:40;6.20;99.90
43143;DHT22;28750;59.842;17.584;2024-02-16T15:08:07;6.20;99.90
43143;DHT22;28750;59.842;17.584;2024-02-16T15:10:35;6.20;99.90
43143;DHT22;28750;59.842;17.584;2024-02-16T15:13:02;6.30;99.90
43143;DHT22;28750;59.842;17.584;2024-02-16T15:15:28;6.30;99.90
43143;DHT22;28750;59.842;17.584;2024-02-16T15:17:55;6.30;99.90
43143;DHT22;28750;59.842;17.584;2024-02-16T15:20:26;6.40;99.90
43143;DHT22;28750;59.842;17.584;2024-02-16T15:22:53;6.50;99.90
43143;DHT22;28750;59.842;17.584;2024-02-16T15:25:23;6.60;99.90
43143;DHT22;28750;59.842;17.584;2024-02-16T15:27:50;6.60;99.90
43143;DHT22;28750;59.842;17.584;2024-02-16T15:30:18;6.50;99.90
43143;DHT22;28750;59.842;17.584;2024-02-16T15:32:45;6.70;99.90
43143;DHT22;28750;59.842;17.584;2024-02-16T15:35:12;6.50;99.90
43143;DHT22;28750;59.842;17.584;2024-02-16T15:37:39;6.40;99.90